createdAt,value
2022-09-05T00:02:03.018Z,10.32
2022-09-05T00:04:30.787Z,11.05
2022-09-05T00:07:34.340Z,13.00
2022-09-05T00:10:36.088Z,9.45
2022-09-05T00:13:13.135Z,8.23
2022-09-05T00:15:56.884Z,11.70
2022-09-05T00:20:28.573Z,8.75
2022-09-05T00:24:32.505Z,7.10
2022-09-05T00:25:07.169Z,14.85
2022-09-05T00:28:25.192Z,13.90
2022-09-05T00:31:55.647Z,11.15
2022-09-05T00:34:10.196Z,16.77
2022-09-05T00:36:55.012Z,7.65
2022-09-05T00:39:25.357Z,10.32
2022-09-05T00:41:58.613Z,9.73
2022-09-05T00:44:32.421Z,12.85
2022-09-05T00:47:02.904Z,12.32
2022-09-05T00:49:40.993Z,13.05
2022-09-05T00:52:29.319Z,11.57
2022-09-05T00:55:02.777Z,14.23
2022-09-05T00:57:55.400Z,16.50
2022-09-05T01:00:31.300Z,16.75
2022-09-05T01:03:26.772Z,12.85
2022-09-05T01:06:16.209Z,18.13
2022-09-05T01:09:21.558Z,16.60
2022-09-05T01:12:15.476Z,13.57
2022-09-05T01:14:56.889Z,11.50
2022-09-05T01:17:54.379Z,18.83
2022-09-05T01:20:43.267Z,13.85
2022-09-05T01:23:29.753Z,16.58
2022-09-05T01:26:28.276Z,15.25
2022-09-05T01:29:19.148Z,15.15
2022-09-05T01:32:16.890Z,13.15
2022-09-05T01:35:02.342Z,12.00
2022-09-05T01:37:45.387Z,18.45
2022-09-05T01:40:37.250Z,13.98
2022-09-05T01:43:36.187Z,12.60
2022-09-05T01:46:24.911Z,13.50
2022-09-05T01:49:02.817Z,8.95
2022-09-05T01:51:41.238Z,11.95
2022-09-05T01:54:23.517Z,11.60
2022-09-05T01:56:53.700Z,10.50
2022-09-05T01:59:38.470Z,6.32
2022-09-05T02:02:36.782Z,8.95
2022-09-05T02:05:27.508Z,8.88
2022-09-05T02:08:16.255Z,7.72
2022-09-05T02:11:01.626Z,6.85
2022-09-05T02:13:44.788Z,9.95
2022-09-05T02:16:40.896Z,10.15
2022-09-05T02:19:26.768Z,7.60
2022-09-05T02:22:10.252Z,7.90
2022-09-05T02:24:48.100Z,14.52
2022-09-05T02:27:30.227Z,10.23
2022-09-05T02:30:26.314Z,10.02
2022-09-05T02:33:21.996Z,20.23
2022-09-05T02:36:11.824Z,11.30
2022-09-05T02:44:46.846Z,11.70
2022-09-05T02:45:09.794Z,13.00
2022-09-05T02:45:27.505Z,15.88
2022-09-05T02:48:15.482Z,16.42
2022-09-05T02:57:27.404Z,18.20
2022-09-05T02:57:32.670Z,15.98
2022-09-05T02:58:05.360Z,14.32
2022-09-05T03:01:09.276Z,14.45
2022-09-05T03:04:19.465Z,16.50
2022-09-05T03:07:02.952Z,13.20
2022-09-05T03:09:49.159Z,16.58
2022-09-05T03:12:28.394Z,20.42
2022-09-05T03:15:18.612Z,19.55
2022-09-05T03:18:35.985Z,16.60
2022-09-05T03:21:12.390Z,17.75
2022-09-05T03:24:13.317Z,20.05
2022-09-05T03:27:15.768Z,19.20
2022-09-05T03:30:08.545Z,18.00
2022-09-05T03:32:55.340Z,14.98
2022-09-05T03:36:00.632Z,19.10
2022-09-05T03:39:19.152Z,18.20
2022-09-05T03:42:14.691Z,23.35
2022-09-05T03:45:01.400Z,18.95
2022-09-05T03:47:31.852Z,21.27
2022-09-05T03:52:15.192Z,20.65
2022-09-05T03:57:11.962Z,27.08
2022-09-05T03:57:23.306Z,16.88
2022-09-05T03:59:40.063Z,24.45
2022-09-05T04:07:32.437Z,23.35
2022-09-05T04:08:18.371Z,21.17
2022-09-05T04:08:34.042Z,21.98
2022-09-05T04:11:14.355Z,21.75
2022-09-05T04:13:54.088Z,23.38
2022-09-05T04:16:43.853Z,25.88
2022-09-05T04:19:16.242Z,20.83
2022-09-05T04:22:00.168Z,17.45
2022-09-05T04:24:56.378Z,20.83
2022-09-05T04:28:01.923Z,23.58
2022-09-05T04:30:45.642Z,29.75
2022-09-05T04:33:19.714Z,24.17
2022-09-05T04:36:19.640Z,20.83
2022-09-05T04:39:25.899Z,20.42
2022-09-05T04:42:06.367Z,27.52
2022-09-05T04:44:55.873Z,26.08
2022-09-05T04:47:38.126Z,28.75
2022-09-05T04:50:15.425Z,24.33
2022-09-05T04:53:15.673Z,29.40
2022-09-05T04:55:51.553Z,33.17
2022-09-05T04:58:27.583Z,30.27
2022-09-05T05:06:01.606Z,31.58
2022-09-05T05:06:16.277Z,24.80
2022-09-05T05:07:20.354Z,25.58
2022-09-05T05:10:40.530Z,24.73
2022-09-05T05:17:57.609Z,27.77
2022-09-05T05:18:13.923Z,35.20
2022-09-05T05:19:24.390Z,34.72
2022-09-05T05:21:58.468Z,32.85
2022-09-05T05:24:42.151Z,38.00
2022-09-05T05:27:13.253Z,40.85
2022-09-05T05:29:57.445Z,34.15
2022-09-05T05:32:45.548Z,33.28
2022-09-05T05:35:22.005Z,32.42
2022-09-05T05:37:55.549Z,36.45
2022-09-05T05:40:31.745Z,34.85
2022-09-05T05:43:33.523Z,38.28
2022-09-05T05:46:02.013Z,48.00
2022-09-05T05:48:51.777Z,44.25
2022-09-05T05:51:51.961Z,130.93
2022-09-05T05:54:42.539Z,29.70
2022-09-05T05:57:40.559Z,33.35
2022-09-05T06:00:16.179Z,21.02
2022-09-05T06:03:26.016Z,16.83
2022-09-05T06:06:13.250Z,17.67
2022-09-05T06:14:51.622Z,16.88
2022-09-05T06:15:00.722Z,14.95
2022-09-05T06:15:49.764Z,12.07
2022-09-05T06:19:02.143Z,14.23
2022-09-05T06:22:10.956Z,11.68
2022-09-05T06:25:16.875Z,21.08
2022-09-05T06:28:05.586Z,14.38
2022-09-05T06:30:48.180Z,13.13
2022-09-05T06:33:52.935Z,15.52
2022-09-05T06:36:31.127Z,10.30
2022-09-05T06:39:37.798Z,11.90
2022-09-05T06:42:42.388Z,18.42
2022-09-05T06:45:27.154Z,13.13
2022-09-05T06:48:24.948Z,24.17
2022-09-05T06:51:16.166Z,13.10
2022-09-05T06:54:03.003Z,12.43
2022-09-05T06:57:03.461Z,20.05
2022-09-05T06:59:58.741Z,18.83
2022-09-05T07:03:00.072Z,17.65
2022-09-05T07:05:45.230Z,19.52
2022-09-05T07:08:34.952Z,17.52
2022-09-05T07:11:18.612Z,16.90
2022-09-05T07:13:49.239Z,16.08
2022-09-05T07:16:34.247Z,23.73
2022-09-05T07:19:33.206Z,22.88
2022-09-05T07:22:47.860Z,20.17
2022-09-05T07:25:20.808Z,19.88
2022-09-05T07:28:26.574Z,25.40
2022-09-05T07:30:46.854Z,25.58
2022-09-05T07:33:20.210Z,26.35
2022-09-05T07:35:50.564Z,25.95
2022-09-05T07:38:24.168Z,24.23
2022-09-05T07:41:22.979Z,27.65
2022-09-05T07:43:57.067Z,27.33
2022-09-05T07:46:29.105Z,30.25
2022-09-05T07:49:02.847Z,34.08
2022-09-05T07:56:54.487Z,28.95
2022-09-05T07:57:06.276Z,26.67
2022-09-05T07:57:52.206Z,30.38
2022-09-05T08:00:28.978Z,30.50
2022-09-05T08:03:10.760Z,20.38
2022-09-05T08:05:46.001Z,21.73
2022-09-05T08:08:20.154Z,22.35
2022-09-05T08:11:24.180Z,18.92
2022-09-05T08:14:43.369Z,23.77
2022-09-05T08:16:46.020Z,19.33
2022-09-05T08:19:22.970Z,21.48
2022-09-05T08:21:52.964Z,19.75
2022-09-05T08:24:25.473Z,17.30
2022-09-05T08:27:16.436Z,14.70
2022-09-05T08:29:51.276Z,19.30
2022-09-05T08:32:57.485Z,11.73
2022-09-05T08:35:47.429Z,17.05
2022-09-05T08:38:17.048Z,14.98
2022-09-05T08:41:12.422Z,15.30
2022-09-05T08:46:42.116Z,10.27
2022-09-05T08:47:23.035Z,13.45
2022-09-05T08:50:09.486Z,14.20
2022-09-05T08:53:00.096Z,13.90
2022-09-05T08:56:20.528Z,13.68
2022-09-05T08:59:31.592Z,13.70
2022-09-05T09:02:45.620Z,14.82
2022-09-05T09:05:26.338Z,11.18
2022-09-05T09:08:22.253Z,14.63
2022-09-05T09:11:06.170Z,18.80
2022-09-05T09:13:52.623Z,17.05
2022-09-05T09:16:30.684Z,9.20
2022-09-05T09:19:19.146Z,9.55
2022-09-05T09:22:17.588Z,11.25
2022-09-05T09:25:15.542Z,13.73
2022-09-05T09:28:49.044Z,11.25
2022-09-05T09:31:07.349Z,12.30
2022-09-05T09:33:53.657Z,15.70
2022-09-05T09:36:43.045Z,12.38
2022-09-05T09:39:38.203Z,7.00
2022-09-05T09:42:33.349Z,12.75
2022-09-05T09:45:29.707Z,10.98
2022-09-05T09:47:57.386Z,8.70
2022-09-05T09:50:28.173Z,7.82
2022-09-05T09:53:17.689Z,11.00
2022-09-05T09:56:10.118Z,8.18
2022-09-05T09:59:01.968Z,6.75
2022-09-05T10:01:38.678Z,12.68
2022-09-05T10:09:25.173Z,7.32
2022-09-05T10:10:57.644Z,15.07
2022-09-05T10:14:49.828Z,8.93
2022-09-05T10:17:21.601Z,12.05
2022-09-05T10:20:14.911Z,8.32
2022-09-05T10:22:58.082Z,6.97
2022-09-05T10:26:27.534Z,9.75
2022-09-05T10:29:30.168Z,15.05
2022-09-05T10:35:02.879Z,7.55
2022-09-05T10:35:21.038Z,11.57
2022-09-05T10:38:18.459Z,11.05
2022-09-05T10:41:21.820Z,9.85
2022-09-05T10:44:02.951Z,9.13
2022-09-05T10:46:51.732Z,13.35
2022-09-05T10:49:30.737Z,10.25
2022-09-05T10:52:18.859Z,6.75
2022-09-05T10:55:14.677Z,6.63
2022-09-05T10:57:58.150Z,12.25
2022-09-05T11:02:28.149Z,6.25
2022-09-05T11:03:51.277Z,8.32
2022-09-05T11:06:30.287Z,12.80
2022-09-05T11:09:20.933Z,6.57
2022-09-05T11:12:14.860Z,6.03
2022-09-05T11:14:54.094Z,8.52
2022-09-05T11:17:27.885Z,5.85
2022-09-05T11:20:30.298Z,8.02
2022-09-05T11:23:18.141Z,10.10
2022-09-05T11:25:47.860Z,4.25
2022-09-05T11:28:26.936Z,12.30
2022-09-05T11:30:58.362Z,13.32
2022-09-05T11:39:48.632Z,6.95
2022-09-05T11:39:51.880Z,9.00
2022-09-05T11:40:07.554Z,6.47
2022-09-05T11:42:36.785Z,9.85
2022-09-05T11:45:28.863Z,7.82
2022-09-05T11:48:13.215Z,4.50
2022-09-05T11:51:06.051Z,10.48
2022-09-05T11:53:59.456Z,7.03
2022-09-05T11:56:50.730Z,7.00
2022-09-05T11:59:51.206Z,7.95
2022-09-05T12:02:49.603Z,6.50
2022-09-05T12:05:49.647Z,9.05
2022-09-05T12:08:30.147Z,4.15
2022-09-05T12:11:19.221Z,14.13
2022-09-05T12:13:51.315Z,7.13
2022-09-05T12:16:41.954Z,7.72
2022-09-05T12:19:20.059Z,7.75
2022-09-05T12:22:25.856Z,6.82
2022-09-05T12:25:25.426Z,8.75
2022-09-05T12:28:54.608Z,5.20
2022-09-05T12:31:07.162Z,5.15
2022-09-05T12:40:01.147Z,12.43
2022-09-05T12:41:34.469Z,10.10
2022-09-05T12:44:36.590Z,9.73
2022-09-05T12:45:59.042Z,7.18
2022-09-05T12:48:40.564Z,10.02
2022-09-05T12:51:46.199Z,6.28
2022-09-05T12:54:33.665Z,8.15
2022-09-05T13:02:55.072Z,5.60
2022-09-05T13:03:07.767Z,6.75
2022-09-05T13:03:28.695Z,8.48
2022-09-05T13:06:25.794Z,9.15
2022-09-05T13:09:08.530Z,7.57
2022-09-05T13:15:00.998Z,7.75
2022-09-05T13:15:20.120Z,10.57
2022-09-05T13:17:53.923Z,7.93
2022-09-05T13:20:34.323Z,11.18
2022-09-05T13:23:11.436Z,8.10
2022-09-05T13:25:43.391Z,12.80
2022-09-05T13:28:17.755Z,4.40
2022-09-05T13:37:53.838Z,7.15
2022-09-05T13:38:05.048Z,7.75
2022-09-05T13:38:21.301Z,8.82
2022-09-05T13:39:52.045Z,6.40
2022-09-05T13:42:26.952Z,11.23
2022-09-05T13:44:59.689Z,9.30
2022-09-05T13:47:53.497Z,11.43
2022-09-05T13:50:33.318Z,10.73
2022-09-05T13:53:26.337Z,7.38
2022-09-05T13:56:03.143Z,6.10
2022-09-05T13:58:57.175Z,10.30
2022-09-05T14:02:19.156Z,10.60
2022-09-05T14:05:20.199Z,10.27
2022-09-05T14:08:18.127Z,8.57
2022-09-05T14:11:11.727Z,9.85
2022-09-05T14:14:11.250Z,7.20
2022-09-05T14:20:17.249Z,8.43
2022-09-05T14:22:47.847Z,5.72
2022-09-05T14:25:21.897Z,9.65
2022-09-05T14:27:50.527Z,12.00
2022-09-05T14:31:09.634Z,9.82
2022-09-05T14:37:48.610Z,10.10
2022-09-05T14:37:55.237Z,7.10
2022-09-05T14:39:55.617Z,10.77
2022-09-05T14:42:47.657Z,11.13
2022-09-05T14:45:37.211Z,13.02
2022-09-05T14:48:25.880Z,10.70
2022-09-05T14:51:04.565Z,7.72
2022-09-05T14:57:45.159Z,8.52
2022-09-05T15:02:49.131Z,5.93
2022-09-05T15:03:00.135Z,9.00
2022-09-05T15:05:29.381Z,8.70
2022-09-05T15:10:57.896Z,10.38
2022-09-05T15:12:23.268Z,8.88
2022-09-05T15:14:04.978Z,12.38
2022-09-05T15:16:43.506Z,12.18
2022-09-05T15:19:17.826Z,7.65
2022-09-05T15:21:45.513Z,12.95
2022-09-05T15:24:31.312Z,11.55
2022-09-05T15:27:02.918Z,14.50
2022-09-05T15:29:36.645Z,11.02
2022-09-05T15:32:38.218Z,9.98
2022-09-05T15:35:06.929Z,8.13
2022-09-05T15:37:40.455Z,11.18
2022-09-05T15:40:22.941Z,12.23
2022-09-05T15:42:56.408Z,8.48
2022-09-05T15:45:32.346Z,13.07
2022-09-05T15:48:26.319Z,7.18
2022-09-05T15:51:09.166Z,18.60
2022-09-05T15:53:38.616Z,7.95
2022-09-05T15:56:10.445Z,12.18
2022-09-05T15:58:53.519Z,10.75
2022-09-05T16:01:58.604Z,13.18
2022-09-05T16:07:45.953Z,9.98
2022-09-05T16:10:38.971Z,9.40
2022-09-05T16:10:57.611Z,14.63
2022-09-05T16:13:33.881Z,8.43
2022-09-05T16:21:09.640Z,11.15
2022-09-05T16:23:23.755Z,6.63
2022-09-05T16:23:28.886Z,7.38
2022-09-05T16:24:59.042Z,7.57
2022-09-05T16:27:43.687Z,10.60
2022-09-05T16:30:19.632Z,3.58
2022-09-05T16:32:51.447Z,7.38
2022-09-05T16:35:24.979Z,11.55
2022-09-05T16:38:27.275Z,5.95
2022-09-05T16:41:38.272Z,4.65
2022-09-05T16:44:32.898Z,7.13
2022-09-05T16:47:32.650Z,9.32
2022-09-05T16:50:24.207Z,8.98
2022-09-05T16:52:53.538Z,8.48
2022-09-05T16:55:36.543Z,6.38
2022-09-05T16:58:16.972Z,10.45
2022-09-05T17:00:56.354Z,7.82
2022-09-05T17:03:42.953Z,4.47
2022-09-05T17:07:06.592Z,4.72
2022-09-05T17:09:37.235Z,5.05
2022-09-05T17:12:13.346Z,4.20
2022-09-05T17:14:48.100Z,6.20
2022-09-05T17:18:19.174Z,5.07
2022-09-05T17:20:17.585Z,38.47
2022-09-05T17:25:38.474Z,23.67
2022-09-05T17:29:31.433Z,14.45
2022-09-05T17:30:26.351Z,13.05
2022-09-05T17:32:02.123Z,11.48
2022-09-05T17:34:36.600Z,2.55
2022-09-05T17:37:25.992Z,4.15
2022-09-05T17:40:11.941Z,2.55
2022-09-05T17:42:54.084Z,7.13
2022-09-05T17:45:45.444Z,3.90
2022-09-05T17:48:58.620Z,4.53
2022-09-05T17:51:35.896Z,3.83
2022-09-05T17:54:04.911Z,6.95
2022-09-05T17:56:34.898Z,4.30
2022-09-05T17:59:25.075Z,4.50
2022-09-05T18:02:19.458Z,5.13
2022-09-05T18:04:52.507Z,4.38
2022-09-05T18:10:15.435Z,2.85
2022-09-05T18:13:13.979Z,4.93
2022-09-05T18:15:39.907Z,2.22
2022-09-05T18:24:24.207Z,2.22
2022-09-05T18:27:11.437Z,8.57
2022-09-05T18:29:59.326Z,3.97
2022-09-05T18:33:56.236Z,4.00
2022-09-05T18:35:54.315Z,4.03
2022-09-05T18:38:50.206Z,3.35
2022-09-05T18:41:18.986Z,4.35
2022-09-05T18:44:20.227Z,5.63
2022-09-05T18:46:58.508Z,2.90
2022-09-05T18:50:25.310Z,2.33
2022-09-05T18:52:31.195Z,2.38
2022-09-05T18:55:51.067Z,6.82
2022-09-05T18:58:11.931Z,5.10
2022-09-05T19:00:46.442Z,5.07
2022-09-05T19:03:18.207Z,4.55
2022-09-05T19:06:36.498Z,4.93
2022-09-05T19:09:00.954Z,4.00
2022-09-05T19:11:33.511Z,4.28
2022-09-05T19:14:26.297Z,2.97
2022-09-05T19:17:40.251Z,5.70
2022-09-05T19:20:31.934Z,3.78
2022-09-05T19:23:10.803Z,2.83
2022-09-05T19:25:52.691Z,6.60
2022-09-05T19:36:46.050Z,5.93
2022-09-05T19:36:54.776Z,9.05
2022-09-05T19:37:08.025Z,6.32
2022-09-05T19:37:28.865Z,8.48
2022-09-05T19:47:29.585Z,5.30
2022-09-05T19:47:30.619Z,8.50
2022-09-05T19:47:36.585Z,6.25
2022-09-05T19:48:35.196Z,6.85
2022-09-05T19:51:16.751Z,3.47
2022-09-05T19:53:48.890Z,4.65
2022-09-05T19:56:46.763Z,4.05
2022-09-05T19:59:23.139Z,4.80
2022-09-05T20:01:53.124Z,4.97
2022-09-05T20:04:21.807Z,4.45
2022-09-05T20:06:50.365Z,3.85
2022-09-05T20:09:23.962Z,5.57
2022-09-05T20:11:58.706Z,6.03
2022-09-05T20:14:30.793Z,6.25
2022-09-05T20:17:23.470Z,3.85
2022-09-05T20:20:16.182Z,6.13
2022-09-05T20:22:52.240Z,8.48
2022-09-05T20:25:35.272Z,6.65
2022-09-05T20:28:11.337Z,5.85
2022-09-05T20:30:45.176Z,5.43
2022-09-05T20:33:38.411Z,6.63
2022-09-05T20:41:05.327Z,4.05
2022-09-05T20:43:15.896Z,5.57
2022-09-05T20:43:23.025Z,9.23
2022-09-05T20:44:55.599Z,5.97
2022-09-05T20:51:18.596Z,4.07
2022-09-05T20:54:20.537Z,8.85
2022-09-05T20:54:28.446Z,4.35
2022-09-05T20:56:23.612Z,7.05
2022-09-05T20:58:51.776Z,2.88
2022-09-05T21:01:23.627Z,3.80
2022-09-05T21:03:57.870Z,4.38
2022-09-05T21:06:33.240Z,11.18
2022-09-05T21:09:25.673Z,6.22
2022-09-05T21:11:56.410Z,5.15
2022-09-05T21:14:27.634Z,3.65
2022-09-05T21:17:00.075Z,6.85
2022-09-05T21:19:33.114Z,4.68
2022-09-05T21:22:06.684Z,3.85
2022-09-05T21:24:34.732Z,3.85
2022-09-05T21:27:16.670Z,6.97
2022-09-05T21:29:45.597Z,4.38
2022-09-05T21:32:38.298Z,5.00
2022-09-05T21:35:34.249Z,5.00
2022-09-05T21:40:26.421Z,3.73
2022-09-05T21:47:34.866Z,4.22
2022-09-05T21:47:46.945Z,2.90
2022-09-05T21:48:35.712Z,7.70
2022-09-05T21:57:40.437Z,4.68
2022-09-05T21:59:18.011Z,2.45
2022-09-05T21:59:45.981Z,3.42
2022-09-05T22:02:08.871Z,2.45
2022-09-05T22:04:41.673Z,2.85
2022-09-05T22:07:32.001Z,2.33
2022-09-05T22:10:05.409Z,1.80
2022-09-05T22:12:35.906Z,2.08
2022-09-05T22:15:26.907Z,2.22
2022-09-05T22:18:08.168Z,1.67
2022-09-05T22:20:51.821Z,5.38
2022-09-05T22:23:40.179Z,3.33
2022-09-05T22:26:07.748Z,5.32
2022-09-05T22:28:38.552Z,1.60
2022-09-05T22:31:07.459Z,2.30
2022-09-05T22:33:36.475Z,2.83
2022-09-05T22:36:04.956Z,1.50
2022-09-05T22:38:33.396Z,1.33
2022-09-05T22:41:01.105Z,2.75
2022-09-05T22:43:33.918Z,1.25
2022-09-05T22:46:01.622Z,2.38
2022-09-05T22:48:29.453Z,2.15
2022-09-05T22:50:57.641Z,1.58
2022-09-05T22:53:25.330Z,1.13
2022-09-05T22:56:01.981Z,1.73
2022-09-05T22:58:30.258Z,2.92
2022-09-05T23:01:01.530Z,3.38
2022-09-05T23:03:29.255Z,4.72
2022-09-05T23:06:00.882Z,2.88
2022-09-05T23:08:28.730Z,2.72
2022-09-05T23:10:56.430Z,6.95
2022-09-05T23:13:24.779Z,5.25
2022-09-05T23:15:56.942Z,4.75
2022-09-05T23:18:24.736Z,5.30
2022-09-05T23:20:53.287Z,3.38
2022-09-05T23:23:21.110Z,2.88
2022-09-05T23:25:48.707Z,4.57
2022-09-05T23:28:16.356Z,5.05
2022-09-05T23:30:44.112Z,4.68
2022-09-05T23:33:11.830Z,5.85
2022-09-05T23:35:40.000Z,5.25
2022-09-05T23:38:11.629Z,3.93
2022-09-05T23:40:39.549Z,2.80
2022-09-05T23:43:08.541Z,2.40
2022-09-05T23:48:04.119Z,7.22
2022-09-05T23:50:31.819Z,3.27
2022-09-05T23:53:04.371Z,3.15
2022-09-05T23:55:32.887Z,2.67
2022-09-05T23:58:01.210Z,3.55
